sensor_id;sensor_type;location;lat;lon;timestamp;pressure;altitude;pressure_sealevel;temperature;humidity
71970;BME280;59838;52.152;5.436;2022-11-09T00:01:00;100570.22;;;11.96;91.19
71970;BME280;59838;52.152;5.436;2022-11-09T00:03:26;100580.00;;;11.94;91.22
71970;BME280;59838;52.152;5.436;2022-11-09T00:05:54;100576.16;;;11.89;91.36
71970;BME280;59838;52.152;5.436;2022-11-09T00:08:20;100577.97;;;11.89;91.31
71970;BME280;59838;52.152;5.436;2022-11-09T00:10:47;100574.75;;;11.87;91.37
71970;BME280;59838;52.152;5.436;2022-11-09T00:13:13;100584.75;;;11.83;91.41
71970;BME280;59838;52.152;5.436;2022-11-09T00:15:39;100586.34;;;11.78;91.40
71970;BME280;59838;52.152;5.436;2022-11-09T00:18:06;100580.72;;;11.74;91.71
71970;BME280;59838;52.152;5.436;2022-11-09T00:20:32;100585.53;;;11.70;91.47
71970;BME280;59838;52.152;5.436;2022-11-09T00:22:58;100588.31;;;11.69;91.74
71970;BME280;59838;52.152;5.436;2022-11-09T00:25:25;100589.34;;;11.68;92.03
71970;BME280;59838;52.152;5.436;2022-11-09T00:27:52;100593.53;;;11.69;92.00
71970;BME280;59838;52.152;5.436;2022-11-09T00:30:19;100585.31;;;11.72;92.03
71970;BME280;59838;52.152;5.436;2022-11-09T00:32:45;100590.53;;;11.72;92.36
71970;BME280;59838;52.152;5.436;2022-11-09T00:35:11;100595.75;;;11.79;92.29
71970;BME280;59838;52.152;5.436;2022-11-09T00:37:38;100595.97;;;11.84;92.28
71970;BME280;59838;52.152;5.436;2022-11-09T00:40:05;100599.59;;;11.89;92.24
71970;BME280;59838;52.152;5.436;2022-11-09T00:42:31;100582.41;;;11.95;92.08
71970;BME280;59838;52.152;5.436;2022-11-09T00:44:58;100588.44;;;11.96;91.73
71970;BME280;59838;52.152;5.436;2022-11-09T00:47:24;100587.59;;;11.95;91.19
71970;BME280;59838;52.152;5.436;2022-11-09T00:49:50;100586.78;;;11.88;91.19
71970;BME280;59838;52.152;5.436;2022-11-09T00:52:17;100578.94;;;11.81;91.42
71970;BME280;59838;52.152;5.436;2022-11-09T00:54:43;100576.16;;;11.76;91.31
71970;BME280;59838;52.152;5.436;2022-11-09T00:57:11;100578.50;;;11.71;91.30
71970;BME280;59838;52.152;5.436;2022-11-09T00:59:38;100567.28;;;11.64;91.54
71970;BME280;59838;52.152;5.436;2022-11-09T01:02:05;100572.28;;;11.59;91.54
71970;BME280;59838;52.152;5.436;2022-11-09T01:04:31;100575.66;;;11.52;91.87
71970;BME280;59838;52.152;5.436;2022-11-09T01:06:57;100571.22;;;11.46;91.72
71970;BME280;59838;52.152;5.436;2022-11-09T01:09:24;100576.59;;;11.38;91.93
71970;BME280;59838;52.152;5.436;2022-11-09T01:11:50;100576.97;;;11.35;92.23
71970;BME280;59838;52.152;5.436;2022-11-09T01:14:17;100574.78;;;11.32;92.15
71970;BME280;59838;52.152;5.436;2022-11-09T01:16:43;100570.97;;;11.28;92.27
71970;BME280;59838;52.152;5.436;2022-11-09T01:19:10;100572.53;;;11.22;92.41
71970;BME280;59838;52.152;5.436;2022-11-09T01:21:37;100580.13;;;11.24;92.44
71970;BME280;59838;52.152;5.436;2022-11-09T01:24:04;100583.38;;;11.26;92.33
71970;BME280;59838;52.152;5.436;2022-11-09T01:26:31;100586.38;;;11.29;92.09
71970;BME280;59838;52.152;5.436;2022-11-09T01:28:58;100583.59;;;11.31;91.67
71970;BME280;59838;52.152;5.436;2022-11-09T01:31:25;100581.59;;;11.33;91.43
71970;BME280;59838;52.152;5.436;2022-11-09T01:33:52;100590.44;;;11.39;91.03
71970;BME280;59838;52.152;5.436;2022-11-09T01:36:21;100586.84;;;11.46;90.31
71970;BME280;59838;52.152;5.436;2022-11-09T01:38:48;100597.63;;;11.43;90.11
71970;BME280;59838;52.152;5.436;2022-11-09T01:41:18;100590.22;;;11.40;90.08
71970;BME280;59838;52.152;5.436;2022-11-09T01:44:05;100589.41;;;11.40;89.98
71970;BME280;59838;52.152;5.436;2022-11-09T01:47:00;100588.41;;;11.34;89.85
71970;BME280;59838;52.152;5.436;2022-11-09T01:52:14;100593.34;;;11.29;89.70
71970;BME280;59838;52.152;5.436;2022-11-09T01:54:45;100588.56;;;11.26;89.83
71970;BME280;59838;52.152;5.436;2022-11-09T01:57:18;100592.72;;;11.20;89.81
71970;BME280;59838;52.152;5.436;2022-11-09T01:59:51;100608.28;;;11.13;90.19
71970;BME280;59838;52.152;5.436;2022-11-09T02:02:20;100599.44;;;11.08;90.10
71970;BME280;59838;52.152;5.436;2022-11-09T02:04:52;100604.41;;;11.03;90.18
71970;BME280;59838;52.152;5.436;2022-11-09T02:07:21;100603.03;;;11.00;90.27
71970;BME280;59838;52.152;5.436;2022-11-09T02:10:09;100593.66;;;11.06;90.51
71970;BME280;59838;52.152;5.436;2022-11-09T02:12:37;100596.66;;;11.09;90.62
71970;BME280;59838;52.152;5.436;2022-11-09T02:15:05;100592.88;;;11.12;90.82
71970;BME280;59838;52.152;5.436;2022-11-09T02:17:33;100592.31;;;11.16;90.84
71970;BME280;59838;52.152;5.436;2022-11-09T02:20:00;100578.75;;;11.21;90.71
71970;BME280;59838;52.152;5.436;2022-11-09T02:22:27;100573.72;;;11.20;90.96
71970;BME280;59838;52.152;5.436;2022-11-09T02:24:54;100581.53;;;11.20;91.04
71970;BME280;59838;52.152;5.436;2022-11-09T02:27:22;100586.72;;;11.20;91.08
71970;BME280;59838;52.152;5.436;2022-11-09T02:29:49;100586.72;;;11.20;91.30
71970;BME280;59838;52.152;5.436;2022-11-09T02:32:19;100578.31;;;11.18;91.16
71970;BME280;59838;52.152;5.436;2022-11-09T02:34:46;100587.31;;;11.15;91.55
71970;BME280;59838;52.152;5.436;2022-11-09T02:37:22;100598.50;;;11.15;91.44
71970;BME280;59838;52.152;5.436;2022-11-09T02:39:49;100598.91;;;11.19;91.70
71970;BME280;59838;52.152;5.436;2022-11-09T02:42:15;100604.16;;;11.26;91.95
71970;BME280;59838;52.152;5.436;2022-11-09T02:44:48;100594.59;;;11.33;91.88
71970;BME280;59838;52.152;5.436;2022-11-09T02:47:16;100602.00;;;11.36;91.96
71970;BME280;59838;52.152;5.436;2022-11-09T02:49:43;100588.63;;;11.39;91.84
71970;BME280;59838;52.152;5.436;2022-11-09T02:52:09;100600.41;;;11.42;92.02
71970;BME280;59838;52.152;5.436;2022-11-09T02:54:35;100597.81;;;11.42;92.20
71970;BME280;59838;52.152;5.436;2022-11-09T02:57:02;100599.66;;;11.48;91.82
71970;BME280;59838;52.152;5.436;2022-11-09T02:59:29;100595.47;;;11.47;92.34
71970;BME280;59838;52.152;5.436;2022-11-09T03:01:55;100591.06;;;11.47;92.16
71970;BME280;59838;52.152;5.436;2022-11-09T03:04:21;100594.25;;;11.49;92.10
71970;BME280;59838;52.152;5.436;2022-11-09T03:06:48;100591.06;;;11.47;92.44
71970;BME280;59838;52.152;5.436;2022-11-09T03:09:14;100590.66;;;11.50;92.56
71970;BME280;59838;52.152;5.436;2022-11-09T03:11:41;100593.50;;;11.56;92.47
71970;BME280;59838;52.152;5.436;2022-11-09T03:14:08;100593.50;;;11.56;92.16
71970;BME280;59838;52.152;5.436;2022-11-09T03:16:38;100601.69;;;11.52;92.50
71970;BME280;59838;52.152;5.436;2022-11-09T03:19:05;100593.28;;;11.50;92.31
71970;BME280;59838;52.152;5.436;2022-11-09T03:21:32;100594.84;;;11.51;92.43
71970;BME280;59838;52.152;5.436;2022-11-09T03:23:58;100588.44;;;11.47;92.29
71970;BME280;59838;52.152;5.436;2022-11-09T03:26:25;100592.44;;;11.50;92.30
71970;BME280;59838;52.152;5.436;2022-11-09T03:28:51;100597.06;;;11.48;92.26
71970;BME280;59838;52.152;5.436;2022-11-09T03:31:17;100601.66;;;11.46;92.45
71970;BME280;59838;52.152;5.436;2022-11-09T03:33:44;100601.84;;;11.44;92.36
71970;BME280;59838;52.152;5.436;2022-11-09T03:36:10;100604.00;;;11.34;92.48
71970;BME280;59838;52.152;5.436;2022-11-09T03:38:37;100601.78;;;11.31;92.93
71970;BME280;59838;52.152;5.436;2022-11-09T03:41:03;100610.56;;;11.30;92.75
71970;BME280;59838;52.152;5.436;2022-11-09T03:43:30;100613.75;;;11.25;92.87
71970;BME280;59838;52.152;5.436;2022-11-09T03:45:56;100609.75;;;11.23;92.99
71970;BME280;59838;52.152;5.436;2022-11-09T03:48:23;100610.13;;;11.20;93.08
71970;BME280;59838;52.152;5.436;2022-11-09T03:50:49;100619.09;;;11.17;93.25
71970;BME280;59838;52.152;5.436;2022-11-09T03:53:16;100617.53;;;11.16;93.39
71970;BME280;59838;52.152;5.436;2022-11-09T03:55:43;100620.31;;;11.14;93.56
71970;BME280;59838;52.152;5.436;2022-11-09T03:58:10;100622.91;;;11.14;93.51
71970;BME280;59838;52.152;5.436;2022-11-09T04:00:38;100632.88;;;11.11;93.58
71970;BME280;59838;52.152;5.436;2022-11-09T04:03:04;100635.47;;;11.11;93.65
71970;BME280;59838;52.152;5.436;2022-11-09T04:05:31;100639.88;;;11.10;93.77
71970;BME280;59838;52.152;5.436;2022-11-09T04:07:57;100648.47;;;11.11;93.47
71970;BME280;59838;52.152;5.436;2022-11-09T04:10:24;100653.06;;;11.09;93.65
71970;BME280;59838;52.152;5.436;2022-11-09T04:12:51;100652.63;;;11.05;93.68
71970;BME280;59838;52.152;5.436;2022-11-09T04:15:18;100647.63;;;11.04;93.93
71970;BME280;59838;52.152;5.436;2022-11-09T04:17:53;100646.47;;;11.06;93.64
71970;BME280;59838;52.152;5.436;2022-11-09T04:20:19;100649.66;;;11.08;93.62
71970;BME280;59838;52.152;5.436;2022-11-09T04:22:53;100649.06;;;11.06;93.47
71970;BME280;59838;52.152;5.436;2022-11-09T04:25:19;100642.66;;;11.09;93.46
71970;BME280;59838;52.152;5.436;2022-11-09T04:27:45;100649.25;;;11.05;93.16
71970;BME280;59838;52.152;5.436;2022-11-09T04:30:12;100654.00;;;11.01;93.22
71970;BME280;59838;52.152;5.436;2022-11-09T04:32:38;100652.59;;;10.98;93.25
71970;BME280;59838;52.152;5.436;2022-11-09T04:35:05;100661.56;;;10.96;93.45
71970;BME280;59838;52.152;5.436;2022-11-09T04:37:32;100660.78;;;10.95;93.44
71970;BME280;59838;52.152;5.436;2022-11-09T04:39:58;100666.75;;;10.96;93.24
71970;BME280;59838;52.152;5.436;2022-11-09T04:42:24;100665.78;;;10.97;93.25
71970;BME280;59838;52.152;5.436;2022-11-09T04:44:51;100668.94;;;10.92;93.03
71970;BME280;59838;52.152;5.436;2022-11-09T04:47:17;100662.75;;;10.93;92.91
71970;BME280;59838;52.152;5.436;2022-11-09T04:49:44;100666.16;;;10.94;93.12
71970;BME280;59838;52.152;5.436;2022-11-09T04:52:10;100674.94;;;10.93;92.89
71970;BME280;59838;52.152;5.436;2022-11-09T04:54:37;100669.75;;;10.93;92.98
71970;BME280;59838;52.152;5.436;2022-11-09T04:57:03;100675.94;;;10.92;92.71
71970;BME280;59838;52.152;5.436;2022-11-09T04:59:29;100675.31;;;10.90;93.02
71970;BME280;59838;52.152;5.436;2022-11-09T05:01:56;100674.88;;;10.86;92.81
71970;BME280;59838;52.152;5.436;2022-11-09T05:04:22;100677.44;;;10.79;92.96
71970;BME280;59838;52.152;5.436;2022-11-09T05:06:48;100680.22;;;10.78;93.00
71970;BME280;59838;52.152;5.436;2022-11-09T05:09:15;100678.59;;;10.77;93.08
71970;BME280;59838;52.152;5.436;2022-11-09T05:11:41;100679.25;;;10.79;93.00
71970;BME280;59838;52.152;5.436;2022-11-09T05:14:08;100670.63;;;10.78;92.89
71970;BME280;59838;52.152;5.436;2022-11-09T05:16:34;100677.44;;;10.79;92.87
71970;BME280;59838;52.152;5.436;2022-11-09T05:19:00;100675.81;;;10.78;92.92
71970;BME280;59838;52.152;5.436;2022-11-09T05:21:27;100673.03;;;10.80;92.75
71970;BME280;59838;52.152;5.436;2022-11-09T05:23:54;100679.06;;;10.81;92.95
71970;BME280;59838;52.152;5.436;2022-11-09T05:26:26;100673.84;;;10.81;92.41
71970;BME280;59838;52.152;5.436;2022-11-09T05:28:53;100680.22;;;10.78;92.93
71970;BME280;59838;52.152;5.436;2022-11-09T05:31:20;100679.44;;;10.77;92.79
71970;BME280;59838;52.152;5.436;2022-11-09T05:33:51;100679.00;;;10.74;92.93
71970;BME280;59838;52.152;5.436;2022-11-09T05:36:18;100691.72;;;10.69;92.86
71970;BME280;59838;52.152;5.436;2022-11-09T05:38:45;100690.31;;;10.66;93.19
71970;BME280;59838;52.152;5.436;2022-11-09T05:41:11;100688.53;;;10.67;93.94
71970;BME280;59838;52.152;5.436;2022-11-09T05:43:38;100692.94;;;10.66;93.48
71970;BME280;59838;52.152;5.436;2022-11-09T05:46:05;100684.94;;;10.68;93.84
71970;BME280;59838;52.152;5.436;2022-11-09T05:48:32;100675.34;;;10.68;94.03
71970;BME280;59838;52.152;5.436;2022-11-09T05:51:03;100685.38;;;10.71;94.10
71970;BME280;59838;52.152;5.436;2022-11-09T05:53:30;100682.16;;;10.69;93.94
71970;BME280;59838;52.152;5.436;2022-11-09T05:56:08;100684.94;;;10.68;94.23
71970;BME280;59838;52.152;5.436;2022-11-09T05:58:35;100683.50;;;10.65;94.36
71970;BME280;59838;52.152;5.436;2022-11-09T06:01:05;100677.53;;;10.65;94.33
71970;BME280;59838;52.152;5.436;2022-11-09T06:03:31;100681.88;;;10.64;94.28
71970;BME280;59838;52.152;5.436;2022-11-09T06:06:03;100679.28;;;10.64;94.27
71970;BME280;59838;52.152;5.436;2022-11-09T06:08:34;100683.88;;;10.62;94.32
71970;BME280;59838;52.152;5.436;2022-11-09T06:11:04;100682.66;;;10.58;94.58
71970;BME280;59838;52.152;5.436;2022-11-09T06:13:31;100696.06;;;10.61;94.62
71970;BME280;59838;52.152;5.436;2022-11-09T06:15:59;100697.28;;;10.66;94.66
71970;BME280;59838;52.152;5.436;2022-11-09T06:18:28;100687.34;;;10.69;94.44
71970;BME280;59838;52.152;5.436;2022-11-09T06:20:57;100706.94;;;10.72;94.17
71970;BME280;59838;52.152;5.436;2022-11-09T06:23:24;100705.53;;;10.69;94.02
71970;BME280;59838;52.152;5.436;2022-11-09T06:26:02;100708.16;;;10.69;93.98
71970;BME280;59838;52.152;5.436;2022-11-09T06:28:29;100714.56;;;10.73;94.30
71970;BME280;59838;52.152;5.436;2022-11-09T06:30:57;100712.97;;;10.72;93.85
71970;BME280;59838;52.152;5.436;2022-11-09T06:33:24;100716.56;;;10.71;93.95
71970;BME280;59838;52.152;5.436;2022-11-09T06:35:51;100723.72;;;10.69;93.96
71970;BME280;59838;52.152;5.436;2022-11-09T06:38:22;100729.53;;;10.71;94.09
71970;BME280;59838;52.152;5.436;2022-11-09T06:40:52;100732.50;;;10.68;94.23
71970;BME280;59838;52.152;5.436;2022-11-09T06:43:19;100728.47;;;10.66;94.29
71970;BME280;59838;52.152;5.436;2022-11-09T06:45:46;100721.69;;;10.65;94.49
71970;BME280;59838;52.152;5.436;2022-11-09T06:48:13;100720.06;;;10.64;94.57
71970;BME280;59838;52.152;5.436;2022-11-09T06:50:39;100718.84;;;10.59;94.60
71970;BME280;59838;52.152;5.436;2022-11-09T06:53:07;100727.06;;;10.63;94.74
71970;BME280;59838;52.152;5.436;2022-11-09T06:55:35;100729.25;;;10.59;94.68
71970;BME280;59838;52.152;5.436;2022-11-09T06:58:10;100733.97;;;10.56;95.01
71970;BME280;59838;52.152;5.436;2022-11-09T07:00:37;100727.19;;;10.55;95.17
71970;BME280;59838;52.152;5.436;2022-11-09T07:03:04;100733.41;;;10.60;95.21
71970;BME280;59838;52.152;5.436;2022-11-09T07:05:30;100738.63;;;10.60;95.03
71970;BME280;59838;52.152;5.436;2022-11-09T07:07:57;100736.84;;;10.61;95.11
71970;BME280;59838;52.152;5.436;2022-11-09T07:10:23;100740.06;;;10.63;94.96
71970;BME280;59838;52.152;5.436;2022-11-09T07:12:50;100737.69;;;10.68;95.14
71970;BME280;59838;52.152;5.436;2022-11-09T07:15:16;100742.41;;;10.79;95.00
71970;BME280;59838;52.152;5.436;2022-11-09T07:17:43;100749.16;;;10.95;94.66
71970;BME280;59838;52.152;5.436;2022-11-09T07:20:10;100739.72;;;10.94;93.96
71970;BME280;59838;52.152;5.436;2022-11-09T07:22:37;100742.88;;;10.90;94.13
71970;BME280;59838;52.152;5.436;2022-11-09T07:25:09;100740.47;;;10.88;94.09
71970;BME280;59838;52.152;5.436;2022-11-09T07:27:36;100745.84;;;10.87;94.02
71970;BME280;59838;52.152;5.436;2022-11-09T07:30:03;100744.25;;;10.86;94.28
71970;BME280;59838;52.152;5.436;2022-11-09T07:32:34;100749.34;;;10.94;94.38
71970;BME280;59838;52.152;5.436;2022-11-09T07:35:20;100745.84;;;11.08;94.08
71970;BME280;59838;52.152;5.436;2022-11-09T07:37:47;100744.53;;;11.19;93.95
71970;BME280;59838;52.152;5.436;2022-11-09T07:40:13;100743.81;;;11.32;93.62
71970;BME280;59838;52.152;5.436;2022-11-09T07:42:40;100750.91;;;11.45;93.18
71970;BME280;59838;52.152;5.436;2022-11-09T07:45:06;100749.78;;;11.54;92.66
71970;BME280;59838;52.152;5.436;2022-11-09T07:47:33;100749.03;;;11.60;92.24
71970;BME280;59838;52.152;5.436;2022-11-09T07:49:59;100752.66;;;11.66;91.87
71970;BME280;59838;52.152;5.436;2022-11-09T07:52:25;100757.84;;;11.66;91.74
71970;BME280;59838;52.152;5.436;2022-11-09T07:54:52;100762.06;;;11.67;91.72
71970;BME280;59838;52.152;5.436;2022-11-09T07:57:19;100758.03;;;11.64;91.58
71970;BME280;59838;52.152;5.436;2022-11-09T07:59:45;100753.03;;;11.63;91.39
71970;BME280;59838;52.152;5.436;2022-11-09T08:02:12;100761.47;;;11.65;91.45
71970;BME280;59838;52.152;5.436;2022-11-09T08:04:40;100758.84;;;11.65;91.32
71970;BME280;59838;52.152;5.436;2022-11-09T08:07:06;100762.06;;;11.67;91.32
71970;BME280;59838;52.152;5.436;2022-11-09T08:09:33;100757.84;;;11.66;91.02
71970;BME280;59838;52.152;5.436;2022-11-09T08:11:59;100758.66;;;11.66;91.12
71970;BME280;59838;52.152;5.436;2022-11-09T08:14:25;100765.66;;;11.66;91.23
71970;BME280;59838;52.152;5.436;2022-11-09T08:16:52;100762.69;;;11.69;91.18
71970;BME280;59838;52.152;5.436;2022-11-09T08:19:20;100765.69;;;11.73;90.71
71970;BME280;59838;52.152;5.436;2022-11-09T08:21:46;100771.16;;;11.78;90.50
71970;BME280;59838;52.152;5.436;2022-11-09T08:24:12;100764.75;;;11.80;90.14
71970;BME280;59838;52.152;5.436;2022-11-09T08:26:39;100771.38;;;11.83;90.72
71970;BME280;59838;52.152;5.436;2022-11-09T08:29:05;100769.56;;;11.83;89.75
71970;BME280;59838;52.152;5.436;2022-11-09T08:31:32;100781.81;;;11.89;90.10
71970;BME280;59838;52.152;5.436;2022-11-09T08:33:58;100770.88;;;11.94;90.38
71970;BME280;59838;52.152;5.436;2022-11-09T08:36:24;100776.66;;;11.96;89.94
71970;BME280;59838;52.152;5.436;2022-11-09T08:38:52;100788.31;;;12.00;89.99
71970;BME280;59838;52.152;5.436;2022-11-09T08:41:19;100783.13;;;12.07;89.61
71970;BME280;59838;52.152;5.436;2022-11-09T08:43:45;100786.56;;;12.14;89.30
71970;BME280;59838;52.152;5.436;2022-11-09T08:46:12;100786.59;;;12.21;89.22
71970;BME280;59838;52.152;5.436;2022-11-09T08:48:38;100786.00;;;12.25;88.77
71970;BME280;59838;52.152;5.436;2022-11-09T08:51:05;100785.63;;;12.29;88.47
71970;BME280;59838;52.152;5.436;2022-11-09T08:53:31;100792.06;;;12.33;88.46
71970;BME280;59838;52.152;5.436;2022-11-09T08:55:57;100787.06;;;12.38;88.29
71970;BME280;59838;52.152;5.436;2022-11-09T08:58:24;100786.50;;;12.42;87.99
71970;BME280;59838;52.152;5.436;2022-11-09T09:00:51;100785.28;;;12.45;87.67
71970;BME280;59838;52.152;5.436;2022-11-09T09:03:17;100791.31;;;12.46;87.22
71970;BME280;59838;52.152;5.436;2022-11-09T09:05:43;100781.50;;;12.54;87.51
71970;BME280;59838;52.152;5.436;2022-11-09T09:08:10;100791.34;;;12.66;86.96
71970;BME280;59838;52.152;5.436;2022-11-09T09:10:38;100789.56;;;12.73;86.62
71970;BME280;59838;52.152;5.436;2022-11-09T09:13:05;100786.56;;;12.76;86.39
71970;BME280;59838;52.152;5.436;2022-11-09T09:15:32;100789.78;;;12.78;86.14
71970;BME280;59838;52.152;5.436;2022-11-09T09:18:00;100793.00;;;12.80;85.70
71970;BME280;59838;52.152;5.436;2022-11-09T09:20:27;100791.19;;;12.87;85.91
71970;BME280;59838;52.152;5.436;2022-11-09T09:22:57;100794.63;;;12.94;86.06
71970;BME280;59838;52.152;5.436;2022-11-09T09:25:24;100793.81;;;13.01;85.80
71970;BME280;59838;52.152;5.436;2022-11-09T09:27:50;100792.03;;;13.01;85.23
71970;BME280;59838;52.152;5.436;2022-11-09T09:30:17;100783.19;;;13.02;84.84
71970;BME280;59838;52.152;5.436;2022-11-09T09:32:43;100789.22;;;13.03;85.07
71970;BME280;59838;52.152;5.436;2022-11-09T09:35:10;100797.44;;;12.99;84.47
71970;BME280;59838;52.152;5.436;2022-11-09T09:37:36;100792.22;;;12.99;84.76
71970;BME280;59838;52.152;5.436;2022-11-09T09:40:03;100795.22;;;13.03;84.37
71970;BME280;59838;52.152;5.436;2022-11-09T09:42:41;100803.03;;;13.16;84.53
71970;BME280;59838;52.152;5.436;2022-11-09T09:45:20;100804.50;;;13.32;84.05
71970;BME280;59838;52.152;5.436;2022-11-09T09:47:57;100800.69;;;13.42;83.57
71970;BME280;59838;52.152;5.436;2022-11-09T09:50:36;100810.91;;;13.50;83.37
71970;BME280;59838;52.152;5.436;2022-11-09T09:53:22;100815.13;;;13.58;82.58
71970;BME280;59838;52.152;5.436;2022-11-09T09:55:55;100809.91;;;13.51;83.25
71970;BME280;59838;52.152;5.436;2022-11-09T09:58:31;100819.94;;;13.41;82.65
71970;BME280;59838;52.152;5.436;2022-11-09T10:01:10;100822.75;;;13.32;83.20
71970;BME280;59838;52.152;5.436;2022-11-09T10:03:39;100822.53;;;13.27;82.60
71970;BME280;59838;52.152;5.436;2022-11-09T10:12:05;100830.38;;;13.54;82.76
71970;BME280;59838;52.152;5.436;2022-11-09T10:14:44;100837.81;;;13.64;82.57
71970;BME280;59838;52.152;5.436;2022-11-09T10:17:37;100837.81;;;13.70;82.84
71970;BME280;59838;52.152;5.436;2022-11-09T10:20:21;100840.78;;;13.81;82.39
71970;BME280;59838;52.152;5.436;2022-11-09T10:26:02;100847.00;;;13.93;81.87
71970;BME280;59838;52.152;5.436;2022-11-09T10:28:38;100844.78;;;13.97;81.58
71970;BME280;59838;52.152;5.436;2022-11-09T10:31:30;100845.19;;;13.94;81.13
71970;BME280;59838;52.152;5.436;2022-11-09T10:34:02;100850.03;;;13.77;81.06
71970;BME280;59838;52.152;5.436;2022-11-09T10:36:49;100833.19;;;13.66;80.71
71970;BME280;59838;52.152;5.436;2022-11-09T10:39:18;100840.81;;;13.67;81.05
71970;BME280;59838;52.152;5.436;2022-11-09T10:41:47;100843.22;;;13.76;81.54
71970;BME280;59838;52.152;5.436;2022-11-09T10:44:15;100838.34;;;13.93;81.10
71970;BME280;59838;52.152;5.436;2022-11-09T10:47:03;100840.72;;;14.07;80.55
71970;BME280;59838;52.152;5.436;2022-11-09T10:49:30;100843.69;;;14.24;78.80
71970;BME280;59838;52.152;5.436;2022-11-09T10:51:59;100848.34;;;14.16;78.37
71970;BME280;59838;52.152;5.436;2022-11-09T10:54:29;100845.16;;;14.07;78.80
71970;BME280;59838;52.152;5.436;2022-11-09T10:57:01;100837.53;;;14.05;78.71
71970;BME280;59838;52.152;5.436;2022-11-09T11:02:01;100837.94;;;14.02;79.42
71970;BME280;59838;52.152;5.436;2022-11-09T11:04:48;100835.53;;;13.94;79.56
71970;BME280;59838;52.152;5.436;2022-11-09T11:07:18;100838.38;;;13.86;79.37
71970;BME280;59838;52.152;5.436;2022-11-09T11:09:46;100844.00;;;13.83;79.13
71970;BME280;59838;52.152;5.436;2022-11-09T11:12:18;100831.53;;;13.92;79.58
71970;BME280;59838;52.152;5.436;2022-11-09T11:14:47;100840.75;;;14.01;78.71
71970;BME280;59838;52.152;5.436;2022-11-09T11:19:47;100843.94;;;14.16;78.00
71970;BME280;59838;52.152;5.436;2022-11-09T11:22:20;100843.94;;;14.10;77.42
71970;BME280;59838;52.152;5.436;2022-11-09T11:24:58;100835.50;;;14.07;78.51
71970;BME280;59838;52.152;5.436;2022-11-09T11:30:10;100827.47;;;14.16;78.56
71970;BME280;59838;52.152;5.436;2022-11-09T11:32:38;100834.66;;;14.20;78.14
71970;BME280;59838;52.152;5.436;2022-11-09T11:35:12;100834.50;;;14.08;78.44
71970;BME280;59838;52.152;5.436;2022-11-09T11:40:56;100837.97;;;13.89;77.79
71970;BME280;59838;52.152;5.436;2022-11-09T11:46:16;100829.56;;;13.74;78.24
71970;BME280;59838;52.152;5.436;2022-11-09T11:49:00;100834.97;;;13.79;77.22
71970;BME280;59838;52.152;5.436;2022-11-09T11:51:56;100838.78;;;13.83;76.23
71970;BME280;59838;52.152;5.436;2022-11-09T12:00:23;100874.53;;;13.49;79.74
71970;BME280;59838;52.152;5.436;2022-11-09T12:06:00;100847.28;;;12.70;84.96
71970;BME280;59838;52.152;5.436;2022-11-09T12:11:12;100870.88;;;12.48;88.16
71970;BME280;59838;52.152;5.436;2022-11-09T12:14:12;100870.09;;;12.54;89.33
71970;BME280;59838;52.152;5.436;2022-11-09T12:16:49;100856.69;;;12.57;88.74
71970;BME280;59838;52.152;5.436;2022-11-09T12:22:21;100870.81;;;12.76;89.63
71970;BME280;59838;52.152;5.436;2022-11-09T12:25:01;100871.59;;;12.84;89.67
71970;BME280;59838;52.152;5.436;2022-11-09T12:30:29;100865.63;;;12.96;89.52
71970;BME280;59838;52.152;5.436;2022-11-09T12:33:05;100866.00;;;12.87;89.46
71970;BME280;59838;52.152;5.436;2022-11-09T12:35:39;100855.56;;;12.87;89.11
71970;BME280;59838;52.152;5.436;2022-11-09T12:38:12;100860.00;;;12.86;89.15
71970;BME280;59838;52.152;5.436;2022-11-09T12:41:02;100858.38;;;12.85;88.78
71970;BME280;59838;52.152;5.436;2022-11-09T12:43:39;100858.00;;;12.88;88.85
71970;BME280;59838;52.152;5.436;2022-11-09T12:46:10;100861.78;;;12.92;88.76
71970;BME280;59838;52.152;5.436;2022-11-09T12:48:39;100872.00;;;12.87;88.46
71970;BME280;59838;52.152;5.436;2022-11-09T12:51:06;100862.81;;;12.98;88.57
71970;BME280;59838;52.152;5.436;2022-11-09T12:53:36;100871.69;;;13.10;88.26
71970;BME280;59838;52.152;5.436;2022-11-09T12:56:10;100869.28;;;13.15;87.10
71970;BME280;59838;52.152;5.436;2022-11-09T12:58:40;100880.31;;;13.17;87.71
71970;BME280;59838;52.152;5.436;2022-11-09T13:01:11;100872.09;;;13.21;87.45
71970;BME280;59838;52.152;5.436;2022-11-09T13:03:53;100876.13;;;13.30;85.93
71970;BME280;59838;52.152;5.436;2022-11-09T13:06:25;100878.94;;;13.28;84.87
71970;BME280;59838;52.152;5.436;2022-11-09T13:09:02;100867.28;;;13.24;85.70
71970;BME280;59838;52.152;5.436;2022-11-09T13:11:59;100871.06;;;13.22;85.08
71970;BME280;59838;52.152;5.436;2022-11-09T13:14:42;100878.69;;;13.16;84.55
71970;BME280;59838;52.152;5.436;2022-11-09T13:19:50;100886.91;;;13.07;84.86
71970;BME280;59838;52.152;5.436;2022-11-09T13:27:43;100900.78;;;13.21;83.12
71970;BME280;59838;52.152;5.436;2022-11-09T13:30:40;100912.81;;;13.15;83.17
71970;BME280;59838;52.152;5.436;2022-11-09T13:38:23;100914.78;;;12.99;83.02
71970;BME280;59838;52.152;5.436;2022-11-09T13:40:53;100920.59;;;13.02;82.29
71970;BME280;59838;52.152;5.436;2022-11-09T13:43:25;100931.63;;;13.04;81.64
71970;BME280;59838;52.152;5.436;2022-11-09T13:45:59;100924.66;;;13.11;82.48
71970;BME280;59838;52.152;5.436;2022-11-09T13:51:13;100926.88;;;13.14;81.52
71970;BME280;59838;52.152;5.436;2022-11-09T13:56:51;100923.28;;;13.28;81.91
71970;BME280;59838;52.152;5.436;2022-11-09T13:59:25;100925.09;;;13.34;81.78
71970;BME280;59838;52.152;5.436;2022-11-09T14:01:55;100925.75;;;13.37;81.18
71970;BME280;59838;52.152;5.436;2022-11-09T14:06:48;100934.16;;;13.39;80.01